Latest Coastal Weather Observations for Green Cape

IDN60701

Issued at 2:01 am EST Friday 30 June 2017 (issued every 10 minutes, with the page automatically refreshed every 10 minutes)

About coastal observations | Map of coastal stations | Coastal observations for NSW | Marine services | Other Formats
Station Details ID: 069137 Name: GREEN CAPE AWS Lat: -37.26 Lon: 150.05 Height: 19.4 m
Data from the previous 72 hours. | See also: Recent months at Green Cape
Date/Time
EST
Temp
°C
Wind Pressure Rain since
9am
mm
Weather Cloud Vis
km
Sea
Height
m
Swell
Dir  Spd
kts
Gust
kts
hPa Trend Height
m
Period
s
Dir
30/02:00am 9.3 WSW 28 36 1020.5 - 0.0 - - - - - - -
30/01:33am 9.8 WSW 28 38 1020.6 - 0.0 - - - - - - -
30/01:30am 9.5 WSW 31 38 1020.4 - 0.0 - - - - - - -
30/01:16am 9.7 WSW 27 38 1020.5 - 0.0 - - - - - - -
30/01:00am 9.8 WSW 26 33 1020.1 - 0.0 - - - - - - -
30/12:30am 10.6 SW 26 32 1020.1 - 0.0 - - - - - - -
30/12:00am 11.1 WSW 27 34 1020.1 - 0.0 - - - - - - -
 
Date/Time
EST
Temp
°C
Wind Pressure Rain since
9am
mm
Weather Cloud Vis
km
Sea
Height
m
Swell
Dir  Spd
kts
Gust
kts
hPa Trend Height
m
Period
s
Dir
29/11:30pm 11.4 WSW 21 27 1020.0 - 0.0 - - - - - - -
29/11:00pm 11.7 SW 25 32 1020.0 - 0.0 - - - - - - -
29/10:30pm 11.9 WSW 20 25 1019.7 - 0.0 - - - - - - -
29/10:00pm 12.2 WSW 25 31 1019.4 - 0.0 - - - - - - -
29/09:30pm 12.6 WSW 26 31 1019.1 - 0.0 - - - - - - -
29/09:00pm 12.8 WSW 24 29 1019.1 - 0.0 - - - - - - -
29/08:30pm 12.7 WSW 20 23 1019.1 - 0.0 - - - - - - -
29/08:00pm 12.4 WSW 11 16 1019.4 - 0.0 - - - - - - -
29/07:30pm 12.5 WSW 12 15 1019.1 - 0.0 - - - - - - -
29/07:00pm 12.7 WSW 12 15 1018.9 - 0.0 - - - - - - -
29/06:30pm 12.5 W 7 10 1018.5 - 0.0 - - - - - - -
29/06:00pm 13.1 W 4 5 1018.1 - 0.0 - - - - - - -
29/05:30pm 13.4 WNW 3 4 1017.6 - 0.0 - - - - - - -
29/05:00pm 14.1 WSW 7 8 1017.6 - 0.0 - - - - - - -
29/04:30pm 14.5 WSW 7 9 1017.5 - 0.0 - - - - - - -
29/04:00pm 14.8 SW 10 13 1017.4 - 0.0 - - - - - - -
29/03:30pm 14.8 SW 11 14 1017.3 - 0.0 - - - - - - -
29/03:00pm 14.9 WSW 8 12 1017.4 - 0.0 - - - - - - -
29/02:30pm 15.1 SW 10 12 1017.4 - 0.0 - - - - - - -
29/02:00pm 15.4 WSW 11 16 1017.5 - 0.0 - - - - - - -
29/01:30pm 15.2 W 11 13 1017.7 - 0.0 - - - - - - -
29/01:00pm 14.3 W 11 13 1018.0 - 0.0 - - - - - - -
29/12:30pm 14.9 W 10 13 1018.4 - 0.0 - - - - - - -
29/12:00pm 14.5 WNW 11 14 1019.0 - 0.0 - - - - - - -
29/11:30am 14.2 WNW 10 12 1019.5 - 0.0 - - - - - - -
29/11:00am 13.5 WNW 6 10 1019.9 - 0.0 - - - - - - -
29/10:30am 13.1 WNW 6 10 1020.3 - 0.0 - - - - - - -
29/10:00am 12.1 WNW 7 9 1020.6 - 0.0 - - - - - - -
29/09:30am 11.3 WNW 8 11 1020.6 - 0.0 - - - - - - -
29/09:00am 11.1 WNW 5 7 1020.5 - 0.0 - - - - - - -
29/08:30am 9.9 W 10 12 1020.1 - 0.0 - - - - - - -
29/08:00am 9.1 W 11 13 1020.0 - 0.0 - - - - - - -
29/07:30am 9.0 W 11 13 1020.3 - 0.0 - - - - - - -
29/07:00am 8.5 WNW 5 7 1020.6 - 0.0 - - - - - - -
29/06:30am 9.1 WNW 8 11 1020.3 - 0.0 - - - - - - -
29/06:00am 9.4 W 13 15 1020.1 - 0.0 - - - - - - -
29/05:30am 9.7 W 14 15 1019.9 - 0.0 - - - - - - -
29/05:00am 9.6 W 8 10 1019.8 - 0.0 - - - - - - -
29/04:30am 9.8 WSW 9 11 1019.8 - 0.0 - - - - - - -
29/04:00am 9.6 WSW 9 11 1019.8 - 0.0 - - - - - - -
29/03:30am 9.4 W 12 13 1019.9 - 0.0 - - - - - - -
29/03:00am 8.9 W 8 11 1020.6 - 0.0 - - - - - - -
29/02:30am 10.0 W 10 12 1020.8 - 0.0 - - - - - - -
29/02:00am 9.6 W 7 8 1021.2 - 0.0 - - - - - - -
29/01:30am 9.4 WNW 5 8 1021.2 - 0.0 - - - - - - -
29/01:00am 9.5 WNW 7 9 1021.2 - 0.0 - - - - - - -
29/12:30am 10.0 W 10 12 1021.4 - 0.0 - - - - - - -
29/12:00am 10.1 W 10 12 1021.4 - 0.0 - - - - - - -
 
Date/Time
EST
Temp
°C
Wind Pressure Rain since
9am
mm
Weather Cloud Vis
km
Sea
Height
m
Swell
Dir  Spd
kts
Gust
kts
hPa Trend Height
m
Period
s
Dir
28/11:30pm 10.8 W 14 15 1021.5 - 0.0 - - - - - - -
28/11:00pm 10.9 W 13 15 1021.7 - 0.0 - - - - - - -
28/10:30pm 10.6 W 11 13 1021.8 - 0.0 - - - - - - -
28/10:00pm 9.8 W 6 8 1021.9 - 0.0 - - - - - - -
28/09:30pm 9.9 WNW 4 8 1021.9 - 0.0 - - - - - - -
28/09:00pm 9.7 WNW 4 7 1022.0 - 0.0 - - - - - - -
28/08:30pm 10.3 W 4 8 1022.0 - 0.0 - - - - - - -
28/08:00pm 10.9 WSW 6 8 1022.1 - 0.0 - - - - - - -
28/07:30pm 11.4 WSW 9 13 1022.2 - 0.0 - - - - - - -
28/07:00pm 11.7 WSW 13 16 1022.0 - 0.0 - - - - - - -
28/06:30pm 12.1 WSW 18 22 1021.4 - 0.0 - - - - - - -
28/06:00pm 12.1 WSW 16 19 1021.2 - 0.0 - - - - - - -
28/05:30pm 12.2 WSW 16 20 1021.0 - 0.0 - - - - - - -
28/05:00pm 12.4 WSW 14 17 1020.8 - 0.0 - - - - - - -
28/04:30pm 12.9 WSW 12 15 1020.8 - 0.0 - - - - - - -
28/04:00pm 13.4 WSW 12 13 1020.5 - 0.0 - - - - - - -
28/03:30pm 13.2 WSW 13 16 1020.6 - 0.0 - - - - - - -
28/03:00pm 13.5 WSW 14 17 1020.6 - 0.0 - - - - - - -
28/02:30pm 13.1 WSW 14 16 1020.7 - 0.0 - - - - - - -
28/02:00pm 13.0 WSW 13 15 1020.9 - 0.0 - - - - - - -
28/01:30pm 12.8 WSW 14 17 1021.3 - 0.0 - - - - - - -
28/01:00pm 12.9 WSW 14 16 1021.3 - 0.0 - - - - - - -
28/12:30pm 12.8 WSW 9 11 1021.5 - 0.0 - - - - - - -
28/12:00pm 12.7 WSW 8 11 1021.9 - 0.0 - - - - - - -
28/11:30am 12.6 W 10 11 1022.3 - 0.0 - - - - - - -
28/11:00am 12.6 W 10 11 1022.7 - 0.0 - - - - - - -
28/10:30am 12.5 WSW 8 9 1022.7 - 0.0 - - - - - - -
28/10:00am 12.2 WSW 7 10 1022.9 - 0.0 - - - - - - -
28/09:30am 12.1 WSW 9 11 1023.0 - 0.0 - - - - - - -
28/09:00am 11.6 W 8 9 1023.1 - 0.0 - - - - - - -
28/08:30am 11.3 W 10 12 1022.9 - 0.0 - - - - - - -
28/08:00am 11.2 W 9 11 1022.5 - 0.0 - - - - - - -
28/07:30am 11.6 W 8 10 1022.3 - 0.0 - - - - - - -
28/07:00am 11.2 W 6 8 1022.5 - 0.0 - - - - - - -
28/06:30am 11.3 W 4 6 1022.5 - 0.0 - - - - - - -
28/06:00am 11.0 W 3 3 1022.4 - 0.0 - - - - - - -
28/05:30am 10.8 W 3 4 1022.3 - 0.0 - - - - - - -
28/05:00am 10.7 W 5 7 1022.4 - 0.0 - - - - - - -
28/04:30am 10.8 W 5 6 1022.4 - 0.0 - - - - - - -
28/04:00am 11.4 NNW 3 3 1022.4 - 0.0 - - - - - - -
28/03:30am 10.8 WNW 3 5 1022.5 - 0.0 - - - - - - -
28/03:00am 11.1 WNW 3 5 1022.7 - 0.0 - - - - - - -
28/02:30am 10.8 W 4 6 1022.8 - 0.0 - - - - - - -
28/02:00am 10.7 W 5 7 1023.2 - 0.0 - - - - - - -
28/01:30am 10.8 WNW 3 5 1023.2 - 0.0 - - - - - - -
28/01:00am 11.1 NNW 5 6 1023.2 - 0.0 - - - - - - -
28/12:30am 11.6 NNW 5 5 1023.3 - 0.0 - - - - - - -
28/12:00am 11.8 NNW 7 8 1023.7 - 0.0 - - - - - - -
 
Date/Time
EST
Temp
°C
Wind Pressure Rain since
9am
mm
Weather Cloud Vis
km
Sea
Height
m
Swell
Dir  Spd
kts
Gust
kts
hPa Trend Height
m
Period
s
Dir
27/11:30pm 11.5 NNW 6 8 1023.9 - 0.0 - - - - - - -
27/11:00pm 11.1 WNW 4 5 1024.0 - 0.0 - - - - - - -
27/10:30pm 11.3 NW 5 6 1024.1 - 0.0 - - - - - - -
27/10:00pm 11.6 NNW 7 9 1024.1 - 0.0 - - - - - - -
27/09:30pm 11.6 NNW 7 9 1024.2 - 0.0 - - - - - - -
27/09:00pm 11.7 NW 6 7 1024.4 - 0.0 - - - - - - -
27/08:30pm 11.7 NW 6 7 1024.6 - 0.0 - - - - - - -
27/08:00pm 12.0 NW 5 6 1024.5 - 0.0 - - - - - - -
27/07:30pm 12.2 NW 4 6 1024.5 - 0.0 - - - - - - -
27/07:00pm 13.3 N 10 13 1024.4 - 0.0 - - - - - - -
27/06:30pm 13.5 N 11 14 1024.3 - 0.0 - - - - - - -
27/06:00pm 13.6 N 12 15 1024.3 - 0.0 - - - - - - -
27/05:30pm 13.5 NNE 10 13 1024.1 - 0.0 - - - - - - -
27/05:00pm 13.4 NNE 10 12 1024.1 - 0.0 - - - - - - -
27/04:30pm 13.2 NNE 9 12 1023.8 - 0.0 - - - - - - -
27/04:00pm 13.3 NNE 9 12 1023.8 - 0.0 - - - - - - -
27/03:30pm 13.5 NNE 7 9 1024.2 - 0.0 - - - - - - -
27/03:00pm 14.0 NNE 6 7 1024.2 - 0.0 - - - - - - -
27/02:30pm 15.2 NE 5 8 1024.2 - 0.0 - - - - - - -
27/02:00pm 15.4 NE 5 6 1024.4 - 0.0 - - - - - - -
27/01:30pm 15.3 NE 4 6 1024.5 - 0.0 - - - - - - -
27/01:00pm 15.7 ENE 4 5 1024.8 - 0.0 - - - - - - -
27/12:30pm 16.1 NE 2 3 1025.3 - 0.0 - - - - - - -
27/12:00pm 15.3 NE 2 4 1025.6 - 0.0 - - - - - - -
27/11:30am 13.9 CALM 0 0 1026.0 - 0.0 - - - - - - -
27/11:00am 13.0 W 5 7 1026.5 - 0.0 - - - - - - -
27/10:30am 12.4 W 5 7 1026.9 - 0.0 - - - - - - -
27/10:00am 11.8 WNW 5 8 1027.1 - 0.0 - - - - - - -
27/09:30am 11.2 WNW 8 10 1027.1 - 0.0 - - - - - - -
27/09:00am 10.4 WNW 10 12 1027.0 - 0.0 - - - - - - -
27/08:30am 10.1 W 13 14 1026.8 - 0.0 - - - - - - -
27/08:00am 9.7 W 11 12 1026.5 - 0.0 - - - - - - -
27/07:30am 9.3 W 13 15 1026.3 - 0.0 - - - - - - -
27/07:00am 9.2 WNW 13 17 1026.2 - 0.0 - - - - - - -
27/06:30am 9.5 W 12 13 1026.3 - 0.0 - - - - - - -
27/06:00am 9.7 W 11 13 1026.0 - 0.0 - - - - - - -
27/05:30am 9.8 W 11 13 1025.8 - 0.0 - - - - - - -
27/05:00am 10.0 W 12 14 1025.7 - 0.0 - - - - - - -
27/04:30am 10.3 W 12 13 1025.5 - 0.0 - - - - - - -
27/04:00am 10.3 W 10 11 1025.7 - 0.0 - - - - - - -
27/03:30am 10.1 W 9 10 1025.6 - 0.0 - - - - - - -
27/03:00am 10.1 W 9 12 1025.6 - 0.0 - - - - - - -
27/02:30am 10.4 W 9 14 1025.6 - 0.0 - - - - - - -

Other Formats:

Comma delimited format used in spreadsheet applications
http://www.bom.gov.au/fwo/IDN60701/IDN60701.94934.axf

JavaScript Object Notation format (JSON) in row-major order
http://www.bom.gov.au/fwo/IDN60701/IDN60701.94934.json